Центральная Россия

Зональный Центр Единой Системы Организации Воздушного Движения (ЗЦ ЕС ОрВД) Екатеринбург является структурным подразделением дивизиона VATRUS сети VATSIM.

В состав ЗЦ входят РПИ Екатеринбурга и Тюмени, которые вместе покрывают воздушное пространство над территорией Уральского федерального округа Российской Федерации общей площадью более 2 млн км². Зональный центр располагается над Уральским горным хребтом от южных границ до северных морей, являясь, таким образом, соединительным звеном Европейской и Азиатской частями России.

В сети ВАТСИМ обслуживание воздушного движения над территорией ЗЦ Екатеринбург осуществляет позиция RU-WSC_FSS, позывной "Центральная Россия-Контроль", частота 134.500.

Мы в Контакте

Лого Центральная Россия
Руководство

Kirill Rudavin

Куратор
Контакты

FSS региона
Обозначение
RU-WSC_FSS
Позывной
Урал-Радар
Частота
134.500
Примечание
Top-down
Инструкторы региона
Alexander Shkut * (Senior Student)
Andrey Tonkachev * (Senior Student)
Anton Agaev (Instructor)
Dmitriy Bannov (Instructor)
Ivan Malygin * (Senior Student)
Ivan Skatov (Instructor)
Kirill Rudavin (Instructor)
Maxim Gerasimov (Instructor)
Включает в себя

РПИ Екатеринбург
РПИ Тюмень

Диспетчеры региона

Диспетчер Рейтинг Допуски *
Alexander Shkut Senior Student USSV_CTR  *, USCM_TWR, USUU_TWR, USPP_APP, USSS_APP, USCC_APP
Andrew Zolotuhin Controller USTV_CTR
Anton Agaev Instructor USSV_CTR , USTV_CTR
Anton Fedosin Controller USSV_CTR
Dmitriy Bannov Instructor USSV_CTR , USTV_CTR
Kirill Ivanov Controller USSV_CTR
Kirill Rudavin Instructor USSV_CTR , USTV_CTR
Maxim Gerasimov Instructor USSV_CTR , USTV_CTR
Maxim Khromtsov Controller USSV_CTR
Vadim Filev Controller USSV_CTR
Victor Rudnov Instructor USSV_CTR
Vladimir Anisimov Controller USSV_CTR
Aleksey Garmash Student 2 USSS_TWR, USSS_R_APP*, USRR_TWR!!!, USTR_TWR
Alexander Pervov Student 2 USRR_APP(USRR+USRO+USRK+USNN) , USTR_TWR
Alexandr Jaschinsky Student 2 USSS_TWR
Andrey Gridchin Controller USSS_APP
Andrey Shestakov Senior Student USPP_APP, USCM_TWR, USCC_APP, USUU_TWR, USSS_APP, USTR_R_APP
Andrey Tarasov Student 2 USSS_APP*
Andrey Tonkachev Senior Student USUU_TWR, USPP_APP, USSS_APP, USCM_TWR, USCC_APP
Andrey Usyaev Student USTR_GND
Artem Glushkov Student USTR_GND
Bogdan Egorov Student USTR_GND
Daniil Omelchenko Student USTR_GND
Dima Platonov Student 2 USRR_R_APP*, USRR_TWR, USTR_GND
Egor Alexeev Student USTR_GND
Eldar Aliev Student 2 USSS_APP*, USPP_TWR, USCC_TWR
Igor Shitov Senior Student USSS_APP, USRR_APP(USRR+USRO+USRK+USNN) , USTR_R_APP
Ivan Malygin Senior Student USPP_APP, USCM_TWR, USCC_APP, USUU_TWR, USSS_APP
Kirill Ardatov Student 2 USSS_TWR, USRR_APP(USRR+USRO+USRK+USNN) , USTR_TWR, USDD_TWR
Kirill Chermeninov Student USSS_GND
Kirill Shabunin Senior Controller USSS_APP
Konstantin Norkin Student 2 USSS_TWR, USTR_R_APP*, USTR_TWR
Maksim Tretyakov Student USSS_GND
Nika Avdalov Student 2 USPP_TWR, USSS_TWR, USCC_TWR, USTR_TWR
Nikita Gonjarov Student 2 USHH_TWR, USTR_TWR
Olga Moskaeva Student USSS_GND
Vladislav Kepkov Student 2 USCC_R_APP*
Vsevolod Skryabin Student 2 USSS_TWR!!!, USMM_R_APP*, USRR_TWR, USTR_TWR

Аэропорты региона

ICAO Город Название Погода
USSS Екатеринбург Кольцово USSS 100830Z 19002MPS CAVOK M09/M15 Q1031 R26L/420350 NOSIG RMK QFE752/1003
USHQ Белоярский Белоярский
USHB Берёзово Берёзово
USII Ижевск Ижевск
USKK Киров Киров
USRK Когалым Когалым
USUU Курган Курган
USCM Магнитогорск Магнитогорск USCM 100830Z 19008MPS 9999 NSC M10/M17 Q1035 R18/090060 TEMPO 21013MPS RMK QFE738
USMM Надым Надым
USNN Нижневартовск Нижневартовск USNN 100830Z 27002MPS CAVOK M29/M33 Q1027 R21/410265 NOSIG RMK QFE765
USMU Новый Уренгой Новый Уренгой
USRO Ноябрьск Ноябрьск
USHN Нягань Нягань
USPP Пермь Пермь USPP 100830Z 19004MPS 160V220 3800 -SN BKN024 M09/M12 Q1026 RESN R21/390135 TEMPO 17006G15MPS RMK QFE759
USDA Сабетта Сабетта USDA 100830Z 33005MPS 9999 BKN020 M15/M16 Q1031 R04/410252 NOSIG RMK QFE772/1029
USDD Салехард Салехард
USHS Советский Советский
USRR Сургут Сургут USRR 100830Z 28004MPS 9999 SCT027 M28/M31 Q1028 R25/35//50 NOSIG RMK QFE766
USTR Тюмень Тюмень USTR 100830Z 26002MPS 8000 -SHSN FEW011 OVC032CB M10/M12 Q1033 R30/490238 R21/490238 TEMPO 1000 SHSN VV004
USHU Урай Урай
USHH Ханты-Мансийск Ханты-Мансийск USHH 100830Z 27001MPS CAVOK M26/M30 Q1032 R24/810250 NOSIG
USCC Челябинск Челябинск USCC 100830Z 23006MPS CAVOK M05/M15 Q1033 R27/450242 NOSIG RMK QFE755
USDB Бованенково Бованенково
USHI Игрим Игрим
USDP Красноселькуп Красноселькуп
USDK Мыс Каменный Мыс Каменный
USDS Тарко-Сале Тарко-Сале
USTJ Тобольск Тобольск
USDO Толька Толька
USMQ Ямбург Ямбург